This is the latest recevied weather packets stored in our database for station/object YC0ACE-13. If no packets are shown the sender has not sent any weather packets the latest 10 day(s).
| Time | Temp. | Humidity | Pressure | Rain* | Wind** | Luminosity | Snow |
|---|---|---|---|---|---|---|---|
| 1777961125 | 31.11° C | 70% | 1013.9 hPa | 0 mm | - | 490 W/m² | - |
| 1777960825 | 30.56° C | 70% | 1014.2 hPa | 0 mm | - | 501 W/m² | - |
| 1777960525 | 30.56° C | 68% | 1013.9 hPa | 0 mm | - | 526 W/m² | - |
| 1777960225 | 31.11° C | 68% | 1014.2 hPa | 0 mm | - | 397 W/m² | - |
| 1777959925 | 31.67° C | 68% | 1014.2 hPa | 0 mm | - | 572 W/m² | - |
| 1777959625 | 31.67° C | 68% | 1014.2 hPa | 0 mm | - | 615 W/m² | - |
| 1777959324 | 30.56° C | 71% | 1014.6 hPa | 0 mm | - | 550 W/m² | - |
| 1777959025 | 30.56° C | 70% | 1014.6 hPa | 0 mm | - | 491 W/m² | - |
| 1777958724 | 30.56° C | 71% | 1014.6 hPa | 0 mm | - | 452 W/m² | - |
| 1777958424 | 30.56° C | 72% | 1014.6 hPa | 0 mm | - | 366 W/m² | - |
| 1777958125 | 31.11° C | 70% | 1014.9 hPa | 0 mm | - | 446 W/m² | - |
| 1777957824 | 30.56° C | 73% | 1014.9 hPa | 0 mm | - | 408 W/m² | - |
| 1777957524 | 30.56° C | 74% | 1014.9 hPa | 0 mm | - | 511 W/m² | - |
| 1777957225 | 30.56° C | 73% | 1015.2 hPa | 0 mm | - | 547 W/m² | - |
| 1777956925 | 30.56° C | 74% | 1015.2 hPa | 0 mm | - | 510 W/m² | - |
| 1777956624 | 30.56° C | 72% | 1015.2 hPa | 0 mm | - | 604 W/m² | - |
| 1777956324 | 30° C | 74% | 1015.6 hPa | 0 mm | - | 629 W/m² | - |
| 1777956025 | 30° C | 74% | 1015.6 hPa | 0 mm | - | 672 W/m² | - |
| 1777955725 | 30° C | 75% | 1015.6 hPa | 0 mm | - | 652 W/m² | - |
| 1777955424 | 30° C | 76% | 1015.6 hPa | 0 mm | - | 643 W/m² | - |
| 1777955124 | 30° C | 76% | 1015.6 hPa | 0 mm | - | 427 W/m² | - |
| 1777954824 | 29.44° C | 77% | 1015.6 hPa | 0 mm | - | 543 W/m² | - |
| 1777954524 | 29.44° C | 77% | 1015.9 hPa | 0 mm | - | 501 W/m² | - |
| 1777954226 | 29.44° C | 76% | 1015.9 hPa | 0 mm | - | 477 W/m² | - |
| 1777953925 | 29.44° C | 78% | 1016.3 hPa | 0 mm | - | 463 W/m² | - |
* Rain latest hour (hover to see other rain measurements)
** Current wind speed in m/s (hover to see current wind gust speed)